Terminal Aerodrome Forecast
Issued by NWS

Home | Current Version | Previous Version | Graphics & Text | Print | Product List | Glossary On
Versions: 1 2 3 4 5 6 7 8 9 10 11 12 13 14
000
FTUS43 KMPX 152200 AAA
TAFRWF
TAF AMD
KRWF 152201Z 1522/1618 36013G20KT 4SM -RASN BR OVC007
     FM160000 35022G32KT 4SM -SN BR OVC005
     FM160400 33020G28KT 4SM -SN BR OVC012
     FM160600 33016G22KT P6SM OVC015=

USA.gov is the U.S. government's official web portal to all federal, state and local government web resources and services.